Flight Track Log - Related Links

Times and Time Zones

All times are in EDT time to prevent confusion due to time zone crossing. See the CNS22 flight status page for this flight to view local times or setup timezone preferences in your user account.

Time Position Orientation Groundspeed Altitude Reporting Facility
EDT Latitude Longitude Course Direction KTS MPH feet Rate Location/Type
Sun 09:24:09 AM 26.7714 -80.1817 314° West 153 176 4,000  Level Miami Center
Sun 09:25:09 AM 26.8042 -80.2128 320° Northwest 159 183 5,600 1,450 Climbing Miami Center
Sun 09:26:09 AM 26.8369 -80.2439 320° Northwest 159 183 6,900 1,350 Climbing Miami Center
Sun 09:27:00 AM 26.9237 -80.2842 332° Northwest  Level FlightAware Approximate
Sun 09:27:09 AM 26.8697 -80.2728 322° Northwest 159 183 8,300  Level Miami Center
Sun 09:28:00 AM 26.9776 -80.3207 326° Northwest  Level FlightAware Approximate
Sun 09:28:09 AM 26.9022 -80.3064 317° Northwest 159 183 9,300  Level Miami Center
Sun 09:29:09 AM 26.9431 -80.3450 320° Northwest 164 189 10,600 1,250 Climbing Miami Center
Sun 09:30:09 AM 26.9714 -80.3831 310° West 159 183 11,800 1,050 Climbing Miami Center
Sun 09:31:09 AM 26.9997 -80.4236 308° West 159 183 12,700 1,050 Climbing Miami Center
Sun 09:32:09 AM 27.0217 -80.4614 303° West 164 189 13,900 1,100 Climbing Miami Center
Sun 09:33:09 AM 27.0497 -80.5067 305° West 164 189 14,900 1,000 Climbing Miami Center
Sun 09:34:09 AM 27.0758 -80.5472 306° West 169 194 15,900 950 Climbing Miami Center
Sun 09:35:09 AM 27.1061 -80.5925 307° West 176 203 16,800 900 Climbing Miami Center
Sun 09:36:09 AM 27.1281 -80.6306 303° West 171 197 17,700 750 Climbing Miami Center
Sun 09:37:09 AM 27.1542 -80.6756 303° West 171 197 18,300 700 Climbing Miami Center
Sun 09:38:09 AM 27.1800 -80.7161 306° West 171 197 19,100 750 Climbing Miami Center
Sun 09:39:09 AM 27.2061 -80.7592 304° West 171 197 19,800 450 Climbing Miami Center
Sun 09:40:09 AM 27.2383 -80.8069 307° West 176 203 20,000 100 Climbing Miami Center
Sun 09:41:09 AM 27.2700 -80.8617 303° West 194 223 20,000  Level Miami Center
Sun 09:42:09 AM 27.3103 -80.9214 307° West 211 243 20,000  Level Miami Center
Sun 09:43:09 AM 27.3442 -80.9789 304° West 222 255 20,000  Level Miami Center
Sun 09:44:09 AM 27.3800 -81.0386 304° West 222 255 20,000  Level Miami Center
Sun 09:45:09 AM 27.4139 -81.0889 307° West 222 255 20,000  Level Miami Center
Sun 09:46:09 AM 27.4519 -81.1489 306° West 222 255 20,000  Level Miami Center
Sun 09:47:09 AM 27.4875 -81.2086 304° West 222 255 20,000  Level Miami Center
Sun 09:48:09 AM 27.5256 -81.2661 307° West 227 261 20,000  Level Miami Center
Sun 09:49:09 AM 27.5592 -81.3239 303° West 227 261 20,000  Level Miami Center
Sun 09:50:09 AM 27.5972 -81.3814 307° West 227 261 20,000  Level Miami Center
Sun 09:51:09 AM 27.6328 -81.4392 305° West 227 261 20,000  Level Miami Center
Sun 09:52:09 AM 27.6686 -81.4967 305° West 227 261 20,000  Level Miami Center
Sun 09:53:09 AM 27.7083 -81.5617 305° West 227 261 20,000  Level Miami Center
Sun 09:54:09 AM 27.7458 -81.6219 305° West 232 267 20,000  Level Miami Center
Sun 09:55:51 AM 27.8086 -81.7219 305° West 229 264 20,000  Level Jacksonville Center
Sun 09:56:51 AM 27.8447 -81.7825 304° West 234 269 20,000  Level Jacksonville Center
Sun 09:57:51 AM 27.8828 -81.8431 305° West 239 275 20,000  Level Jacksonville Center
Sun 09:58:51 AM 27.9186 -81.9014 305° West 239 275 20,000  Level Jacksonville Center
Sun 09:59:51 AM 27.9547 -81.9644 303° West 239 275 20,000  Level Jacksonville Center
Sun 10:00:51 AM 27.9947 -82.0206 309° West 234 269 20,000  Level Jacksonville Center
Sun 10:01:51 AM 28.0450 -82.0672 321° Northwest 234 269 20,000  Level Jacksonville Center
Sun 10:02:51 AM 28.0933 -82.1114 321° Northwest 229 264 20,000  Level Jacksonville Center
Sun 10:03:51 AM 28.1458 -82.1558 323° Northwest 223 257 20,000  Level Jacksonville Center
Sun 10:04:51 AM 28.1836 -82.2097 309° West 228 262 20,000  Level Jacksonville Center
Sun 10:05:51 AM 28.2153 -82.2708 300° West 223 257 20,000  Level Jacksonville Center
Sun 10:06:51 AM 28.2489 -82.3294 303° West 223 257 20,000  Level Jacksonville Center
Sun 10:07:51 AM 28.2803 -82.3881 301° West 223 257 20,000  Level Jacksonville Center
Sun 10:08:51 AM 28.3119 -82.4492 300° West 223 257 20,000  Level Jacksonville Center
Sun 10:09:51 AM 28.3414 -82.5081 300° West 223 257 20,000  Level Jacksonville Center
Sun 10:10:51 AM 28.3750 -82.5669 303° West 223 257 20,000  Level Jacksonville Center
Sun 10:11:51 AM 28.4064 -82.6236 302° West 223 257 20,000  Level Jacksonville Center
Sun 10:12:51 AM 28.4397 -82.6825 303° West 223 257 20,000  Level Jacksonville Center
Sun 10:13:51 AM 28.4711 -82.7439 300° West 223 257 20,000  Level Jacksonville Center
Sun 10:14:51 AM 28.5108 -82.7933 312° West 218 251 20,000  Level Jacksonville Center
Sun 10:15:51 AM 28.5653 -82.8311 329° Northwest 218 251 20,000  Level Jacksonville Center
Sun 10:16:51 AM 28.6194 -82.8689 329° Northwest 225 259 20,000  Level Jacksonville Center
Sun 10:17:51 AM 28.6717 -82.9044 329° Northwest 225 259 20,000  Level Jacksonville Center
Sun 10:18:51 AM 28.7258 -82.9400 330° Northwest 225 259 20,000  Level Jacksonville Center
Sun 10:19:51 AM 28.7781 -82.9756 329° Northwest 225 259 20,000  Level Jacksonville Center
Sun 10:20:51 AM 28.8178 -83.0253 312° West 219 252 20,000  Level Jacksonville Center
Sun 10:21:51 AM 28.8469 -83.0844 299° West 214 246 20,000  Level Jacksonville Center
Sun 10:22:51 AM 28.8758 -83.1439 299° West 214 246 20,000  Level Jacksonville Center
Sun 10:23:51 AM 28.9031 -83.2033 298° West 214 246 20,000  Level Jacksonville Center
Sun 10:24:51 AM 28.9300 -83.2603 298° West 214 246 20,000  Level Jacksonville Center
Sun 10:25:51 AM 28.9569 -83.3197 297° West 214 246 20,000  Level Jacksonville Center
Sun 10:26:51 AM 28.9881 -83.3817 300° West 219 252 20,000  Level Jacksonville Center
Sun 10:27:51 AM 29.0147 -83.4411 297° West 219 252 20,000  Level Jacksonville Center
Sun 10:28:51 AM 29.0439 -83.5006 299° West 219 252 20,000  Level Jacksonville Center
Sun 10:29:51 AM 29.0728 -83.5578 300° West 219 252 20,000  Level Jacksonville Center
Sun 10:30:51 AM 29.0975 -83.6150 296° West 219 252 20,000  Level Jacksonville Center
Sun 10:31:52 AM 29.1264 -83.6747 299° West 219 252 20,000  Level Jacksonville Center
Sun 10:32:51 AM 29.1553 -83.7342 299° West 219 252 20,000  Level Jacksonville Center
Sun 10:33:51 AM 29.1778 -83.7869 296° West 219 252 20,000  Level Jacksonville Center
Sun 10:34:51 AM 29.2067 -83.8442 300° West 214 246 20,000  Level Jacksonville Center
Sun 10:35:51 AM 29.2333 -83.9017 298° West 214 246 20,000  Level Jacksonville Center
Sun 10:36:51 AM 29.2619 -83.9589 300° West 214 246 20,000  Level Jacksonville Center
Sun 10:37:51 AM 29.2886 -84.0189 297° West 214 246 20,000  Level Jacksonville Center
Sun 10:38:51 AM 29.3153 -84.0786 297° West 209 241 20,000  Level Jacksonville Center
Sun 10:39:51 AM 29.3419 -84.1361 298° West 209 241 20,000  Level Jacksonville Center
Sun 10:40:51 AM 29.3706 -84.1936 300° West 209 241 20,000  Level Jacksonville Center
Sun 10:41:51 AM 29.3950 -84.2489 297° West 204 235 20,000  Level Jacksonville Center
Sun 10:42:51 AM 29.4256 -84.3114 299° West 204 235 20,000  Level Jacksonville Center
Sun 10:43:51 AM 29.4522 -84.3689 298° West 204 235 20,000  Level Jacksonville Center
Sun 10:44:51 AM 29.4764 -84.4264 296° West 204 235 20,000  Level Jacksonville Center
Sun 10:45:51 AM 29.5092 -84.4939 299° West 204 235 20,000  Level Jacksonville Center
Sun 10:46:51 AM 29.5353 -84.5564 296° West 209 241 20,000  Level Jacksonville Center
Sun 10:47:51 AM 29.5639 -84.6142 300° West 209 241 20,000  Level Jacksonville Center
Sun 10:48:51 AM 29.5922 -84.6742 299° West 214 246 20,000  Level Jacksonville Center
Sun 10:49:51 AM 29.6206 -84.7369 297° West 219 252 20,000 -450 Level Jacksonville Center
Sun 10:50:51 AM 29.6508 -84.8044 297° West 224 258 19,100 -900 Descending Jacksonville Center
Sun 10:51:51 AM 29.6811 -84.8744 296° West 235 270 18,200 -800 Descending Jacksonville Center
Sun 10:52:51 AM 29.7156 -84.9419 300° West 241 277 17,500 -800 Descending Jacksonville Center
Sun 10:53:51 AM 29.7478 -85.0119 298° West 241 277 16,600 -900 Descending Jacksonville Center
Sun 10:54:51 AM 29.7800 -85.0844 297° West 241 277 15,700 -900 Descending Jacksonville Center
Sun 10:55:51 AM 29.8122 -85.1569 297° West 246 283 14,800 -900 Descending Jacksonville Center
Sun 10:57:00 AM 29.8418 -85.2278 296° West  Level FlightAware Approximate
Sun 11:04:00 AM 30.0218 -85.6603 300° West  Level FlightAware Approximate
Sun 11:05:00 AM 30.0515 -85.7196 300° West  Level FlightAware Approximate
Sun 11:06:00 AM 30.0812 -85.7790 300° West  Level FlightAware Approximate
Sun 11:07:00 AM 30.1108 -85.8383 300° West  Level FlightAware Approximate
Sun 11:08:00 AM 30.1405 -85.8977 300° West  Level FlightAware Approximate
Sun 11:09:00 AM 30.1680 -85.9585 296° West  Level FlightAware Approximate
Sun 11:10:00 AM 30.1943 -86.0200 296° West  Level FlightAware Approximate
Sun 11:11:00 AM 30.2213 -86.0811 297° West  Level FlightAware Approximate
Sun 11:12:00 AM 30.2484 -86.1422 297° West  Level FlightAware Approximate
Sun 11:13:00 AM 30.2813 -86.1980 319° Northwest  Level FlightAware Approximate
Sun 11:14:00 AM 30.3038 -86.2612 291° West  Level FlightAware Approximate
Sun 11:15:00 AM 30.3265 -86.3247 295° West  Level FlightAware Approximate
Sun 11:16:00 AM 30.3520 -86.3867 305° West  Level FlightAware Approximate
Sun 11:17:00 AM 30.3859 -86.4431 305° West  Level FlightAware Approximate
Sun 11:18:00 AM 30.4000 -86.4667 305° West  Level FlightAware Approximate
Sun 11:19:00 AM 30.4000 -86.4715 305° West  Level Estimated
Sun 11:20:00 AM 30.4000 -86.4667 305° West  Level FlightAware Approximate
Sun 11:21:00 AM 30.4000 -86.4715 305° West  Level Estimated
Sun 11:22:00 AM 30.4000 -86.4667 305° West  Level FlightAware Approximate
Sun 11:23:00 AM 30.4000 -86.4715 305° West  Level Estimated
Sun 11:24:00 AM 30.4000 -86.4667 305° West  Level FlightAware Approximate
Sun 11:25:00 AM 30.4000 -86.4715 305° West  Level Estimated

Login

Don't have an account? Register now (free) for customized features, flight alerts, and more!